sensor_id;sensor_type;location;lat;lon;timestamp;P1;durP1;ratioP1;P2;durP2;ratioP2
33421;SDS011;19763;55.798;37.782;2024-02-21T00:00:52;25.65;;;18.60;;
33421;SDS011;19763;55.798;37.782;2024-02-21T00:03:18;25.15;;;18.75;;
33421;SDS011;19763;55.798;37.782;2024-02-21T00:05:44;26.63;;;19.48;;
33421;SDS011;19763;55.798;37.782;2024-02-21T00:08:10;26.52;;;19.30;;
33421;SDS011;19763;55.798;37.782;2024-02-21T00:10:36;27.10;;;18.80;;
33421;SDS011;19763;55.798;37.782;2024-02-21T00:13:01;24.80;;;18.48;;
33421;SDS011;19763;55.798;37.782;2024-02-21T00:15:27;26.02;;;18.55;;
33421;SDS011;19763;55.798;37.782;2024-02-21T00:17:53;24.42;;;18.15;;
33421;SDS011;19763;55.798;37.782;2024-02-21T00:20:19;24.77;;;19.02;;
33421;SDS011;19763;55.798;37.782;2024-02-21T00:22:45;24.88;;;18.50;;
33421;SDS011;19763;55.798;37.782;2024-02-21T00:25:11;24.95;;;17.83;;
33421;SDS011;19763;55.798;37.782;2024-02-21T00:27:37;22.25;;;17.65;;
33421;SDS011;19763;55.798;37.782;2024-02-21T00:30:04;25.00;;;17.80;;
33421;SDS011;19763;55.798;37.782;2024-02-21T00:32:31;23.55;;;17.38;;
33421;SDS011;19763;55.798;37.782;2024-02-21T00:34:59;26.40;;;18.85;;
33421;SDS011;19763;55.798;37.782;2024-02-21T00:37:24;25.88;;;19.67;;
33421;SDS011;19763;55.798;37.782;2024-02-21T00:39:50;22.10;;;17.50;;
33421;SDS011;19763;55.798;37.782;2024-02-21T00:42:16;23.70;;;18.23;;
33421;SDS011;19763;55.798;37.782;2024-02-21T00:44:41;24.15;;;17.25;;
33421;SDS011;19763;55.798;37.782;2024-02-21T00:47:07;26.65;;;18.38;;
33421;SDS011;19763;55.798;37.782;2024-02-21T00:49:33;23.85;;;17.13;;
33421;SDS011;19763;55.798;37.782;2024-02-21T00:51:58;24.65;;;17.08;;
33421;SDS011;19763;55.798;37.782;2024-02-21T00:54:24;20.73;;;17.15;;
33421;SDS011;19763;55.798;37.782;2024-02-21T00:56:49;22.75;;;16.75;;
33421;SDS011;19763;55.798;37.782;2024-02-21T00:59:15;25.38;;;16.92;;
33421;SDS011;19763;55.798;37.782;2024-02-21T01:01:41;24.60;;;16.50;;
33421;SDS011;19763;55.798;37.782;2024-02-21T01:04:08;22.50;;;16.60;;
33421;SDS011;19763;55.798;37.782;2024-02-21T01:06:34;23.48;;;17.38;;
33421;SDS011;19763;55.798;37.782;2024-02-21T01:09:00;24.33;;;16.95;;
33421;SDS011;19763;55.798;37.782;2024-02-21T01:11:26;21.90;;;16.05;;
33421;SDS011;19763;55.798;37.782;2024-02-21T01:13:52;22.55;;;16.15;;
33421;SDS011;19763;55.798;37.782;2024-02-21T01:16:20;25.88;;;16.25;;
33421;SDS011;19763;55.798;37.782;2024-02-21T01:18:46;19.40;;;14.68;;
33421;SDS011;19763;55.798;37.782;2024-02-21T01:21:11;22.08;;;16.40;;
33421;SDS011;19763;55.798;37.782;2024-02-21T01:23:37;22.90;;;16.80;;
33421;SDS011;19763;55.798;37.782;2024-02-21T01:26:03;18.95;;;14.88;;
33421;SDS011;19763;55.798;37.782;2024-02-21T01:28:30;21.52;;;16.10;;
33421;SDS011;19763;55.798;37.782;2024-02-21T01:30:56;20.88;;;15.90;;
33421;SDS011;19763;55.798;37.782;2024-02-21T01:33:22;20.85;;;15.48;;
33421;SDS011;19763;55.798;37.782;2024-02-21T01:35:48;20.20;;;15.32;;
33421;SDS011;19763;55.798;37.782;2024-02-21T01:38:15;21.90;;;15.40;;
33421;SDS011;19763;55.798;37.782;2024-02-21T01:40:41;19.60;;;14.70;;
33421;SDS011;19763;55.798;37.782;2024-02-21T01:43:16;22.27;;;15.18;;
33421;SDS011;19763;55.798;37.782;2024-02-21T01:45:45;18.60;;;13.70;;
33421;SDS011;19763;55.798;37.782;2024-02-21T01:48:14;20.75;;;14.68;;
33421;SDS011;19763;55.798;37.782;2024-02-21T01:50:40;22.85;;;15.70;;
33421;SDS011;19763;55.798;37.782;2024-02-21T01:53:05;20.42;;;14.52;;
33421;SDS011;19763;55.798;37.782;2024-02-21T01:55:33;19.52;;;14.40;;
33421;SDS011;19763;55.798;37.782;2024-02-21T01:57:59;20.13;;;14.35;;
33421;SDS011;19763;55.798;37.782;2024-02-21T02:00:25;19.48;;;14.45;;
33421;SDS011;19763;55.798;37.782;2024-02-21T02:02:51;19.42;;;14.38;;
33421;SDS011;19763;55.798;37.782;2024-02-21T02:05:17;18.23;;;14.38;;
33421;SDS011;19763;55.798;37.782;2024-02-21T02:07:46;20.85;;;15.70;;
33421;SDS011;19763;55.798;37.782;2024-02-21T02:10:12;21.35;;;15.32;;
33421;SDS011;19763;55.798;37.782;2024-02-21T02:12:38;20.13;;;14.52;;
33421;SDS011;19763;55.798;37.782;2024-02-21T02:15:04;18.50;;;13.98;;
33421;SDS011;19763;55.798;37.782;2024-02-21T02:17:30;21.48;;;15.45;;
33421;SDS011;19763;55.798;37.782;2024-02-21T02:19:56;18.02;;;14.25;;
33421;SDS011;19763;55.798;37.782;2024-02-21T02:22:22;18.92;;;14.63;;
33421;SDS011;19763;55.798;37.782;2024-02-21T02:24:57;19.48;;;14.52;;
33421;SDS011;19763;55.798;37.782;2024-02-21T02:27:31;21.35;;;14.43;;
33421;SDS011;19763;55.798;37.782;2024-02-21T02:29:57;18.00;;;14.48;;
33421;SDS011;19763;55.798;37.782;2024-02-21T02:32:22;18.55;;;13.60;;
33421;SDS011;19763;55.798;37.782;2024-02-21T02:34:48;19.15;;;13.70;;
33421;SDS011;19763;55.798;37.782;2024-02-21T02:37:14;20.38;;;14.57;;
33421;SDS011;19763;55.798;37.782;2024-02-21T02:39:39;17.75;;;13.43;;
33421;SDS011;19763;55.798;37.782;2024-02-21T02:42:05;22.17;;;14.43;;
33421;SDS011;19763;55.798;37.782;2024-02-21T02:44:30;19.27;;;14.73;;
33421;SDS011;19763;55.798;37.782;2024-02-21T02:46:56;17.58;;;13.93;;
33421;SDS011;19763;55.798;37.782;2024-02-21T02:49:22;21.50;;;14.32;;
33421;SDS011;19763;55.798;37.782;2024-02-21T02:51:47;19.27;;;13.45;;
33421;SDS011;19763;55.798;37.782;2024-02-21T02:54:13;19.10;;;13.15;;
33421;SDS011;19763;55.798;37.782;2024-02-21T02:56:39;19.83;;;14.23;;
33421;SDS011;19763;55.798;37.782;2024-02-21T02:59:04;17.35;;;13.38;;
33421;SDS011;19763;55.798;37.782;2024-02-21T03:01:33;19.63;;;13.13;;
33421;SDS011;19763;55.798;37.782;2024-02-21T03:03:59;20.13;;;13.32;;
33421;SDS011;19763;55.798;37.782;2024-02-21T03:06:24;19.92;;;13.85;;
33421;SDS011;19763;55.798;37.782;2024-02-21T03:08:50;17.73;;;13.25;;
33421;SDS011;19763;55.798;37.782;2024-02-21T03:11:20;20.92;;;14.15;;
33421;SDS011;19763;55.798;37.782;2024-02-21T03:13:46;23.10;;;14.10;;
33421;SDS011;19763;55.798;37.782;2024-02-21T03:16:12;18.15;;;13.60;;
33421;SDS011;19763;55.798;37.782;2024-02-21T03:18:37;18.63;;;14.02;;
33421;SDS011;19763;55.798;37.782;2024-02-21T03:21:03;21.92;;;13.93;;
33421;SDS011;19763;55.798;37.782;2024-02-21T03:23:29;19.63;;;14.05;;
33421;SDS011;19763;55.798;37.782;2024-02-21T03:25:54;18.40;;;12.48;;
33421;SDS011;19763;55.798;37.782;2024-02-21T03:28:20;18.52;;;12.88;;
33421;SDS011;19763;55.798;37.782;2024-02-21T03:30:45;18.58;;;14.02;;
33421;SDS011;19763;55.798;37.782;2024-02-21T03:33:11;20.70;;;13.85;;
33421;SDS011;19763;55.798;37.782;2024-02-21T03:35:37;18.98;;;13.90;;
33421;SDS011;19763;55.798;37.782;2024-02-21T03:38:02;17.60;;;12.88;;
33421;SDS011;19763;55.798;37.782;2024-02-21T03:40:28;19.60;;;13.05;;
33421;SDS011;19763;55.798;37.782;2024-02-21T03:42:54;18.05;;;13.68;;
33421;SDS011;19763;55.798;37.782;2024-02-21T03:45:19;18.95;;;13.93;;
33421;SDS011;19763;55.798;37.782;2024-02-21T03:47:45;21.20;;;14.55;;
33421;SDS011;19763;55.798;37.782;2024-02-21T03:50:11;18.55;;;13.55;;
33421;SDS011;19763;55.798;37.782;2024-02-21T03:52:36;19.75;;;14.02;;
33421;SDS011;19763;55.798;37.782;2024-02-21T03:55:02;18.58;;;13.60;;
33421;SDS011;19763;55.798;37.782;2024-02-21T03:57:28;19.95;;;14.05;;
33421;SDS011;19763;55.798;37.782;2024-02-21T03:59:54;19.15;;;13.43;;
33421;SDS011;19763;55.798;37.782;2024-02-21T04:02:19;18.52;;;14.35;;
33421;SDS011;19763;55.798;37.782;2024-02-21T04:04:45;18.42;;;14.07;;
33421;SDS011;19763;55.798;37.782;2024-02-21T04:07:14;18.63;;;13.82;;
33421;SDS011;19763;55.798;37.782;2024-02-21T04:09:40;18.77;;;13.70;;
33421;SDS011;19763;55.798;37.782;2024-02-21T04:12:08;19.33;;;13.85;;
33421;SDS011;19763;55.798;37.782;2024-02-21T04:14:34;22.02;;;14.32;;
33421;SDS011;19763;55.798;37.782;2024-02-21T04:17:01;19.15;;;13.98;;
33421;SDS011;19763;55.798;37.782;2024-02-21T04:19:26;18.10;;;13.30;;
33421;SDS011;19763;55.798;37.782;2024-02-21T04:21:52;19.10;;;14.00;;
33421;SDS011;19763;55.798;37.782;2024-02-21T04:24:17;19.75;;;14.13;;
33421;SDS011;19763;55.798;37.782;2024-02-21T04:26:43;22.85;;;13.95;;
33421;SDS011;19763;55.798;37.782;2024-02-21T04:29:09;19.48;;;14.10;;
33421;SDS011;19763;55.798;37.782;2024-02-21T04:31:35;16.90;;;13.25;;
33421;SDS011;19763;55.798;37.782;2024-02-21T04:34:01;19.40;;;13.52;;
33421;SDS011;19763;55.798;37.782;2024-02-21T04:36:28;17.92;;;13.70;;
33421;SDS011;19763;55.798;37.782;2024-02-21T04:38:53;21.65;;;14.85;;
33421;SDS011;19763;55.798;37.782;2024-02-21T04:41:19;20.42;;;14.30;;
33421;SDS011;19763;55.798;37.782;2024-02-21T04:43:48;21.13;;;14.90;;
33421;SDS011;19763;55.798;37.782;2024-02-21T04:46:14;18.70;;;14.32;;
33421;SDS011;19763;55.798;37.782;2024-02-21T04:48:40;19.00;;;13.98;;
33421;SDS011;19763;55.798;37.782;2024-02-21T04:51:06;16.83;;;13.60;;
33421;SDS011;19763;55.798;37.782;2024-02-21T04:53:32;18.75;;;14.35;;
33421;SDS011;19763;55.798;37.782;2024-02-21T04:55:57;19.60;;;13.95;;
33421;SDS011;19763;55.798;37.782;2024-02-21T04:58:23;19.92;;;14.02;;
33421;SDS011;19763;55.798;37.782;2024-02-21T05:00:49;18.52;;;13.80;;
33421;SDS011;19763;55.798;37.782;2024-02-21T05:03:14;17.50;;;13.50;;
33421;SDS011;19763;55.798;37.782;2024-02-21T05:05:40;17.55;;;13.40;;
33421;SDS011;19763;55.798;37.782;2024-02-21T05:08:06;19.35;;;14.23;;
33421;SDS011;19763;55.798;37.782;2024-02-21T05:10:31;18.30;;;13.70;;
33421;SDS011;19763;55.798;37.782;2024-02-21T05:12:57;19.08;;;13.60;;
33421;SDS011;19763;55.798;37.782;2024-02-21T05:15:23;21.27;;;14.27;;
33421;SDS011;19763;55.798;37.782;2024-02-21T05:17:49;20.48;;;14.93;;
33421;SDS011;19763;55.798;37.782;2024-02-21T05:20:15;22.23;;;15.23;;
33421;SDS011;19763;55.798;37.782;2024-02-21T05:22:40;18.23;;;13.73;;
33421;SDS011;19763;55.798;37.782;2024-02-21T05:25:06;21.00;;;14.55;;
33421;SDS011;19763;55.798;37.782;2024-02-21T05:27:32;20.67;;;15.05;;
33421;SDS011;19763;55.798;37.782;2024-02-21T05:29:58;19.42;;;15.02;;
33421;SDS011;19763;55.798;37.782;2024-02-21T05:32:25;18.65;;;14.15;;
33421;SDS011;19763;55.798;37.782;2024-02-21T05:34:51;21.58;;;14.60;;
33421;SDS011;19763;55.798;37.782;2024-02-21T05:37:17;67.03;;;40.40;;
33421;SDS011;19763;55.798;37.782;2024-02-21T05:39:42;19.98;;;14.98;;
33421;SDS011;19763;55.798;37.782;2024-02-21T05:42:09;18.23;;;14.63;;
33421;SDS011;19763;55.798;37.782;2024-02-21T05:44:34;21.02;;;15.68;;
33421;SDS011;19763;55.798;37.782;2024-02-21T05:47:00;21.08;;;15.18;;
33421;SDS011;19763;55.798;37.782;2024-02-21T05:49:26;20.50;;;15.27;;
33421;SDS011;19763;55.798;37.782;2024-02-21T05:51:51;22.88;;;14.77;;
33421;SDS011;19763;55.798;37.782;2024-02-21T05:54:19;19.83;;;15.00;;
33421;SDS011;19763;55.798;37.782;2024-02-21T05:56:45;20.08;;;14.80;;
33421;SDS011;19763;55.798;37.782;2024-02-21T05:59:12;22.58;;;15.52;;
33421;SDS011;19763;55.798;37.782;2024-02-21T06:01:37;19.67;;;14.23;;
33421;SDS011;19763;55.798;37.782;2024-02-21T06:04:03;22.60;;;15.40;;
33421;SDS011;19763;55.798;37.782;2024-02-21T06:06:30;25.70;;;16.02;;
33421;SDS011;19763;55.798;37.782;2024-02-21T06:08:55;23.23;;;15.48;;
33421;SDS011;19763;55.798;37.782;2024-02-21T06:11:28;21.52;;;15.00;;
33421;SDS011;19763;55.798;37.782;2024-02-21T06:13:54;20.02;;;15.55;;
33421;SDS011;19763;55.798;37.782;2024-02-21T06:16:20;21.88;;;15.90;;
33421;SDS011;19763;55.798;37.782;2024-02-21T06:18:46;20.55;;;14.98;;
33421;SDS011;19763;55.798;37.782;2024-02-21T06:21:11;20.63;;;15.35;;
33421;SDS011;19763;55.798;37.782;2024-02-21T06:23:37;22.40;;;16.85;;
33421;SDS011;19763;55.798;37.782;2024-02-21T06:26:03;19.58;;;15.77;;
33421;SDS011;19763;55.798;37.782;2024-02-21T06:28:29;20.65;;;15.65;;
33421;SDS011;19763;55.798;37.782;2024-02-21T06:30:55;21.42;;;15.05;;
33421;SDS011;19763;55.798;37.782;2024-02-21T06:33:20;21.25;;;15.60;;
33421;SDS011;19763;55.798;37.782;2024-02-21T06:35:50;19.98;;;15.00;;
33421;SDS011;19763;55.798;37.782;2024-02-21T06:38:18;19.35;;;15.73;;
33421;SDS011;19763;55.798;37.782;2024-02-21T06:40:44;20.38;;;15.57;;
33421;SDS011;19763;55.798;37.782;2024-02-21T06:43:14;20.52;;;15.45;;
33421;SDS011;19763;55.798;37.782;2024-02-21T06:45:41;23.20;;;15.70;;
33421;SDS011;19763;55.798;37.782;2024-02-21T06:48:07;20.65;;;15.63;;
33421;SDS011;19763;55.798;37.782;2024-02-21T06:50:33;21.90;;;15.00;;
33421;SDS011;19763;55.798;37.782;2024-02-21T06:52:58;22.58;;;16.80;;
33421;SDS011;19763;55.798;37.782;2024-02-21T06:55:24;21.90;;;15.18;;
33421;SDS011;19763;55.798;37.782;2024-02-21T06:57:53;24.13;;;16.42;;
33421;SDS011;19763;55.798;37.782;2024-02-21T07:00:19;19.98;;;15.65;;
33421;SDS011;19763;55.798;37.782;2024-02-21T07:02:45;23.85;;;15.38;;
33421;SDS011;19763;55.798;37.782;2024-02-21T07:05:10;23.25;;;15.25;;
33421;SDS011;19763;55.798;37.782;2024-02-21T07:07:36;21.92;;;15.63;;
33421;SDS011;19763;55.798;37.782;2024-02-21T07:10:02;19.20;;;14.07;;
33421;SDS011;19763;55.798;37.782;2024-02-21T07:12:28;21.02;;;15.43;;
33421;SDS011;19763;55.798;37.782;2024-02-21T07:14:54;20.50;;;15.85;;
33421;SDS011;19763;55.798;37.782;2024-02-21T07:17:20;22.45;;;15.65;;
33421;SDS011;19763;55.798;37.782;2024-02-21T07:19:45;21.20;;;15.65;;
33421;SDS011;19763;55.798;37.782;2024-02-21T07:22:11;22.27;;;14.98;;
33421;SDS011;19763;55.798;37.782;2024-02-21T07:24:37;21.67;;;16.75;;
33421;SDS011;19763;55.798;37.782;2024-02-21T07:27:02;24.23;;;16.95;;
33421;SDS011;19763;55.798;37.782;2024-02-21T07:29:30;20.52;;;14.30;;
33421;SDS011;19763;55.798;37.782;2024-02-21T07:31:56;23.50;;;16.25;;
33421;SDS011;19763;55.798;37.782;2024-02-21T07:34:21;24.42;;;16.85;;
33421;SDS011;19763;55.798;37.782;2024-02-21T07:36:47;22.30;;;16.20;;
33421;SDS011;19763;55.798;37.782;2024-02-21T07:39:12;22.65;;;15.68;;
33421;SDS011;19763;55.798;37.782;2024-02-21T07:41:38;26.30;;;15.82;;
33421;SDS011;19763;55.798;37.782;2024-02-21T07:44:05;22.00;;;16.52;;
33421;SDS011;19763;55.798;37.782;2024-02-21T07:46:31;21.73;;;15.35;;
33421;SDS011;19763;55.798;37.782;2024-02-21T07:48:56;23.75;;;16.65;;
33421;SDS011;19763;55.798;37.782;2024-02-21T07:51:22;20.83;;;16.23;;
33421;SDS011;19763;55.798;37.782;2024-02-21T07:53:47;21.60;;;15.40;;
33421;SDS011;19763;55.798;37.782;2024-02-21T07:56:14;23.65;;;15.88;;
33421;SDS011;19763;55.798;37.782;2024-02-21T07:58:41;21.52;;;15.50;;
33421;SDS011;19763;55.798;37.782;2024-02-21T08:01:08;21.25;;;14.93;;
33421;SDS011;19763;55.798;37.782;2024-02-21T08:03:34;20.58;;;15.13;;
33421;SDS011;19763;55.798;37.782;2024-02-21T08:06:00;21.95;;;14.77;;
33421;SDS011;19763;55.798;37.782;2024-02-21T08:08:26;19.45;;;14.40;;
33421;SDS011;19763;55.798;37.782;2024-02-21T08:10:52;23.27;;;15.25;;
33421;SDS011;19763;55.798;37.782;2024-02-21T08:13:18;21.20;;;14.38;;
33421;SDS011;19763;55.798;37.782;2024-02-21T08:15:43;22.05;;;14.93;;
33421;SDS011;19763;55.798;37.782;2024-02-21T08:18:09;21.75;;;15.63;;
33421;SDS011;19763;55.798;37.782;2024-02-21T08:20:35;23.35;;;14.68;;
33421;SDS011;19763;55.798;37.782;2024-02-21T08:23:01;21.20;;;15.70;;
33421;SDS011;19763;55.798;37.782;2024-02-21T08:25:27;19.75;;;14.63;;
33421;SDS011;19763;55.798;37.782;2024-02-21T08:27:57;20.20;;;14.43;;
33421;SDS011;19763;55.798;37.782;2024-02-21T08:30:24;20.02;;;15.10;;
33421;SDS011;19763;55.798;37.782;2024-02-21T08:32:50;18.63;;;13.77;;
33421;SDS011;19763;55.798;37.782;2024-02-21T08:35:16;21.33;;;13.77;;
33421;SDS011;19763;55.798;37.782;2024-02-21T08:37:47;19.80;;;14.18;;
33421;SDS011;19763;55.798;37.782;2024-02-21T08:40:14;17.67;;;13.77;;
33421;SDS011;19763;55.798;37.782;2024-02-21T08:42:44;19.13;;;13.60;;
33421;SDS011;19763;55.798;37.782;2024-02-21T08:45:10;18.08;;;14.23;;
33421;SDS011;19763;55.798;37.782;2024-02-21T08:47:36;19.42;;;14.35;;
33421;SDS011;19763;55.798;37.782;2024-02-21T08:50:02;17.10;;;13.55;;
33421;SDS011;19763;55.798;37.782;2024-02-21T08:52:29;18.70;;;14.25;;
33421;SDS011;19763;55.798;37.782;2024-02-21T08:54:54;20.27;;;14.32;;
33421;SDS011;19763;55.798;37.782;2024-02-21T08:57:20;19.08;;;14.55;;
33421;SDS011;19763;55.798;37.782;2024-02-21T08:59:46;22.38;;;13.90;;
33421;SDS011;19763;55.798;37.782;2024-02-21T09:02:12;20.02;;;13.75;;
33421;SDS011;19763;55.798;37.782;2024-02-21T09:04:38;23.50;;;14.80;;
33421;SDS011;19763;55.798;37.782;2024-02-21T09:07:04;19.10;;;13.90;;
33421;SDS011;19763;55.798;37.782;2024-02-21T09:09:29;20.05;;;14.20;;
33421;SDS011;19763;55.798;37.782;2024-02-21T09:11:57;20.88;;;14.90;;
33421;SDS011;19763;55.798;37.782;2024-02-21T09:14:23;22.45;;;14.52;;
33421;SDS011;19763;55.798;37.782;2024-02-21T09:16:48;22.95;;;14.30;;
33421;SDS011;19763;55.798;37.782;2024-02-21T09:19:14;18.00;;;14.23;;
33421;SDS011;19763;55.798;37.782;2024-02-21T09:21:40;17.58;;;13.30;;
33421;SDS011;19763;55.798;37.782;2024-02-21T09:24:05;21.45;;;14.63;;
33421;SDS011;19763;55.798;37.782;2024-02-21T09:26:31;23.33;;;15.55;;
33421;SDS011;19763;55.798;37.782;2024-02-21T09:28:57;20.50;;;14.43;;
33421;SDS011;19763;55.798;37.782;2024-02-21T09:31:22;21.33;;;15.07;;
33421;SDS011;19763;55.798;37.782;2024-02-21T09:33:48;20.35;;;14.57;;
33421;SDS011;19763;55.798;37.782;2024-02-21T09:36:14;19.05;;;13.45;;
33421;SDS011;19763;55.798;37.782;2024-02-21T09:38:40;19.77;;;14.43;;
33421;SDS011;19763;55.798;37.782;2024-02-21T09:41:22;18.73;;;14.57;;
33421;SDS011;19763;55.798;37.782;2024-02-21T09:43:53;17.38;;;13.55;;
33421;SDS011;19763;55.798;37.782;2024-02-21T09:46:21;18.33;;;13.40;;
33421;SDS011;19763;55.798;37.782;2024-02-21T09:48:58;18.58;;;13.80;;
33421;SDS011;19763;55.798;37.782;2024-02-21T09:51:47;18.27;;;12.52;;
33421;SDS011;19763;55.798;37.782;2024-02-21T09:54:14;19.65;;;14.73;;
33421;SDS011;19763;55.798;37.782;2024-02-21T09:56:40;19.10;;;14.32;;
33421;SDS011;19763;55.798;37.782;2024-02-21T09:59:06;19.35;;;14.30;;
33421;SDS011;19763;55.798;37.782;2024-02-21T10:01:32;19.95;;;14.35;;
33421;SDS011;19763;55.798;37.782;2024-02-21T10:03:58;17.52;;;13.13;;
33421;SDS011;19763;55.798;37.782;2024-02-21T10:06:24;18.17;;;12.95;;
33421;SDS011;19763;55.798;37.782;2024-02-21T10:08:53;20.15;;;12.98;;
33421;SDS011;19763;55.798;37.782;2024-02-21T10:11:23;18.25;;;13.43;;
33421;SDS011;19763;55.798;37.782;2024-02-21T10:13:49;20.13;;;12.45;;
33421;SDS011;19763;55.798;37.782;2024-02-21T10:16:15;19.10;;;13.43;;
33421;SDS011;19763;55.798;37.782;2024-02-21T10:18:41;20.02;;;13.68;;
33421;SDS011;19763;55.798;37.782;2024-02-21T10:21:07;19.10;;;13.43;;
33421;SDS011;19763;55.798;37.782;2024-02-21T10:23:43;16.20;;;12.77;;
33421;SDS011;19763;55.798;37.782;2024-02-21T10:26:14;15.32;;;12.02;;
33421;SDS011;19763;55.798;37.782;2024-02-21T10:28:41;17.63;;;13.20;;
33421;SDS011;19763;55.798;37.782;2024-02-21T10:31:08;16.73;;;12.82;;
33421;SDS011;19763;55.798;37.782;2024-02-21T10:33:35;15.50;;;12.15;;
33421;SDS011;19763;55.798;37.782;2024-02-21T10:36:08;16.73;;;12.32;;
33421;SDS011;19763;55.798;37.782;2024-02-21T10:38:35;16.98;;;12.80;;
33421;SDS011;19763;55.798;37.782;2024-02-21T10:41:02;16.70;;;12.20;;
33421;SDS011;19763;55.798;37.782;2024-02-21T10:43:30;16.27;;;12.75;;
33421;SDS011;19763;55.798;37.782;2024-02-21T10:46:01;16.52;;;12.57;;
33421;SDS011;19763;55.798;37.782;2024-02-21T10:48:31;17.35;;;12.10;;
33421;SDS011;19763;55.798;37.782;2024-02-21T10:56:31;42.42;;;13.80;;
33421;SDS011;19763;55.798;37.782;2024-02-21T10:59:02;16.17;;;12.13;;
33421;SDS011;19763;55.798;37.782;2024-02-21T11:01:30;16.23;;;12.73;;
33421;SDS011;19763;55.798;37.782;2024-02-21T11:04:10;19.93;;;11.77;;
33421;SDS011;19763;55.798;37.782;2024-02-21T11:06:40;15.35;;;12.10;;
33421;SDS011;19763;55.798;37.782;2024-02-21T11:09:07;13.93;;;11.05;;
33421;SDS011;19763;55.798;37.782;2024-02-21T11:11:35;13.75;;;10.88;;
33421;SDS011;19763;55.798;37.782;2024-02-21T11:14:09;16.92;;;10.90;;
33421;SDS011;19763;55.798;37.782;2024-02-21T11:16:36;13.50;;;10.68;;
33421;SDS011;19763;55.798;37.782;2024-02-21T11:19:09;15.98;;;11.15;;
33421;SDS011;19763;55.798;37.782;2024-02-21T11:21:44;13.30;;;10.52;;
33421;SDS011;19763;55.798;37.782;2024-02-21T11:24:09;13.77;;;10.90;;
33421;SDS011;19763;55.798;37.782;2024-02-21T11:26:37;15.68;;;11.27;;
33421;SDS011;19763;55.798;37.782;2024-02-21T11:29:03;15.32;;;11.05;;
33421;SDS011;19763;55.798;37.782;2024-02-21T11:32:03;14.23;;;11.18;;
33421;SDS011;19763;55.798;37.782;2024-02-21T11:34:22;16.25;;;11.73;;
33421;SDS011;19763;55.798;37.782;2024-02-21T11:36:51;13.93;;;10.80;;
33421;SDS011;19763;55.798;37.782;2024-02-21T11:39:19;13.13;;;10.27;;
33421;SDS011;19763;55.798;37.782;2024-02-21T11:42:01;17.58;;;12.32;;
33421;SDS011;19763;55.798;37.782;2024-02-21T11:44:31;14.70;;;11.88;;
33421;SDS011;19763;55.798;37.782;2024-02-21T11:46:57;15.07;;;11.60;;
33421;SDS011;19763;55.798;37.782;2024-02-21T11:49:29;17.13;;;11.32;;
33421;SDS011;19763;55.798;37.782;2024-02-21T11:51:59;15.48;;;11.40;;
33421;SDS011;19763;55.798;37.782;2024-02-21T11:54:26;15.30;;;11.85;;
33421;SDS011;19763;55.798;37.782;2024-02-21T11:56:53;15.05;;;11.73;;
33421;SDS011;19763;55.798;37.782;2024-02-21T11:59:19;16.42;;;11.60;;
33421;SDS011;19763;55.798;37.782;2024-02-21T12:01:44;14.68;;;10.30;;
33421;SDS011;19763;55.798;37.782;2024-02-21T12:04:10;16.52;;;10.68;;
33421;SDS011;19763;55.798;37.782;2024-02-21T12:06:36;15.65;;;11.18;;
33421;SDS011;19763;55.798;37.782;2024-02-21T12:09:01;17.13;;;11.57;;
33421;SDS011;19763;55.798;37.782;2024-02-21T12:11:27;14.10;;;10.57;;
33421;SDS011;19763;55.798;37.782;2024-02-21T12:13:59;14.98;;;11.38;;
33421;SDS011;19763;55.798;37.782;2024-02-21T12:16:30;15.40;;;10.98;;
33421;SDS011;19763;55.798;37.782;2024-02-21T12:18:58;16.60;;;12.55;;
33421;SDS011;19763;55.798;37.782;2024-02-21T12:21:25;15.35;;;12.32;;
33421;SDS011;19763;55.798;37.782;2024-02-21T12:23:53;16.25;;;11.95;;
33421;SDS011;19763;55.798;37.782;2024-02-21T12:26:22;16.17;;;11.93;;
33421;SDS011;19763;55.798;37.782;2024-02-21T12:28:48;14.40;;;11.48;;
33421;SDS011;19763;55.798;37.782;2024-02-21T12:31:14;16.15;;;11.77;;
33421;SDS011;19763;55.798;37.782;2024-02-21T12:33:41;14.68;;;11.63;;
33421;SDS011;19763;55.798;37.782;2024-02-21T12:36:08;17.50;;;11.95;;
33421;SDS011;19763;55.798;37.782;2024-02-21T12:38:34;18.45;;;11.88;;
33421;SDS011;19763;55.798;37.782;2024-02-21T12:41:00;18.15;;;12.52;;
33421;SDS011;19763;55.798;37.782;2024-02-21T12:43:26;16.27;;;11.75;;
33421;SDS011;19763;55.798;37.782;2024-02-21T12:45:52;15.35;;;12.02;;
33421;SDS011;19763;55.798;37.782;2024-02-21T12:48:18;18.98;;;11.80;;
33421;SDS011;19763;55.798;37.782;2024-02-21T12:50:50;16.23;;;12.30;;
33421;SDS011;19763;55.798;37.782;2024-02-21T12:53:19;16.00;;;11.55;;
33421;SDS011;19763;55.798;37.782;2024-02-21T12:55:47;16.60;;;11.48;;
33421;SDS011;19763;55.798;37.782;2024-02-21T12:58:13;14.65;;;11.52;;
33421;SDS011;19763;55.798;37.782;2024-02-21T13:00:40;14.68;;;10.70;;
33421;SDS011;19763;55.798;37.782;2024-02-21T13:03:06;16.58;;;11.48;;
33421;SDS011;19763;55.798;37.782;2024-02-21T13:05:32;17.38;;;11.88;;
33421;SDS011;19763;55.798;37.782;2024-02-21T13:07:58;20.00;;;13.02;;
33421;SDS011;19763;55.798;37.782;2024-02-21T13:10:24;16.90;;;11.70;;
33421;SDS011;19763;55.798;37.782;2024-02-21T13:12:50;18.60;;;11.82;;
33421;SDS011;19763;55.798;37.782;2024-02-21T13:15:16;16.27;;;11.65;;
33421;SDS011;19763;55.798;37.782;2024-02-21T13:17:45;18.00;;;12.00;;
33421;SDS011;19763;55.798;37.782;2024-02-21T13:20:11;15.57;;;11.13;;
33421;SDS011;19763;55.798;37.782;2024-02-21T13:22:37;17.00;;;11.80;;
33421;SDS011;19763;55.798;37.782;2024-02-21T13:25:04;16.25;;;11.38;;
33421;SDS011;19763;55.798;37.782;2024-02-21T13:27:32;15.90;;;11.57;;
33421;SDS011;19763;55.798;37.782;2024-02-21T13:29:58;19.20;;;13.10;;
33421;SDS011;19763;55.798;37.782;2024-02-21T13:32:25;18.70;;;11.65;;
33421;SDS011;19763;55.798;37.782;2024-02-21T13:34:51;18.65;;;11.30;;
33421;SDS011;19763;55.798;37.782;2024-02-21T13:37:17;16.95;;;11.13;;
33421;SDS011;19763;55.798;37.782;2024-02-21T13:39:43;15.30;;;11.02;;
33421;SDS011;19763;55.798;37.782;2024-02-21T13:42:09;16.35;;;11.52;;
33421;SDS011;19763;55.798;37.782;2024-02-21T13:44:35;15.63;;;11.20;;
33421;SDS011;19763;55.798;37.782;2024-02-21T13:47:02;16.45;;;11.38;;
33421;SDS011;19763;55.798;37.782;2024-02-21T13:49:28;18.90;;;11.73;;
33421;SDS011;19763;55.798;37.782;2024-02-21T13:51:55;17.25;;;11.32;;
33421;SDS011;19763;55.798;37.782;2024-02-21T13:54:21;16.55;;;11.25;;
33421;SDS011;19763;55.798;37.782;2024-02-21T13:56:46;15.18;;;11.18;;
33421;SDS011;19763;55.798;37.782;2024-02-21T13:59:12;15.60;;;10.60;;
33421;SDS011;19763;55.798;37.782;2024-02-21T14:01:41;17.58;;;11.23;;
33421;SDS011;19763;55.798;37.782;2024-02-21T14:04:08;15.73;;;11.43;;
33421;SDS011;19763;55.798;37.782;2024-02-21T14:06:34;19.65;;;11.50;;
33421;SDS011;19763;55.798;37.782;2024-02-21T14:09:00;18.17;;;11.38;;
33421;SDS011;19763;55.798;37.782;2024-02-21T14:11:26;16.58;;;10.50;;